sensor_id;sensor_type;location;lat;lon;timestamp;P1;durP1;ratioP1;P2;durP2;ratioP2
59824;SDS011;45703;50.898;6.054;2023-12-22T00:01:05;8.32;;;1.70;;
59824;SDS011;45703;50.898;6.054;2023-12-22T00:03:30;9.88;;;1.98;;
59824;SDS011;45703;50.898;6.054;2023-12-22T00:05:55;8.57;;;1.75;;
59824;SDS011;45703;50.898;6.054;2023-12-22T00:08:21;12.30;;;1.80;;
59824;SDS011;45703;50.898;6.054;2023-12-22T00:10:49;7.72;;;1.88;;
59824;SDS011;45703;50.898;6.054;2023-12-22T00:13:14;13.00;;;2.42;;
59824;SDS011;45703;50.898;6.054;2023-12-22T00:15:42;14.88;;;2.03;;
59824;SDS011;45703;50.898;6.054;2023-12-22T00:18:08;11.55;;;2.90;;
59824;SDS011;45703;50.898;6.054;2023-12-22T00:20:33;10.75;;;2.22;;
59824;SDS011;45703;50.898;6.054;2023-12-22T00:22:59;15.60;;;2.25;;
59824;SDS011;45703;50.898;6.054;2023-12-22T00:25:24;9.55;;;2.50;;
59824;SDS011;45703;50.898;6.054;2023-12-22T00:27:50;13.98;;;1.83;;
59824;SDS011;45703;50.898;6.054;2023-12-22T00:30:16;8.82;;;1.80;;
59824;SDS011;45703;50.898;6.054;2023-12-22T00:32:41;8.88;;;1.88;;
59824;SDS011;45703;50.898;6.054;2023-12-22T00:35:07;7.50;;;1.73;;
59824;SDS011;45703;50.898;6.054;2023-12-22T00:37:33;8.43;;;1.75;;
59824;SDS011;45703;50.898;6.054;2023-12-22T00:39:58;8.90;;;2.17;;
59824;SDS011;45703;50.898;6.054;2023-12-22T00:42:24;6.95;;;1.67;;
59824;SDS011;45703;50.898;6.054;2023-12-22T00:44:49;8.10;;;1.70;;
59824;SDS011;45703;50.898;6.054;2023-12-22T00:47:15;8.60;;;1.65;;
59824;SDS011;45703;50.898;6.054;2023-12-22T00:49:40;12.13;;;3.20;;
59824;SDS011;45703;50.898;6.054;2023-12-22T00:52:05;9.88;;;1.48;;
59824;SDS011;45703;50.898;6.054;2023-12-22T00:54:31;14.13;;;2.17;;
59824;SDS011;45703;50.898;6.054;2023-12-22T00:56:56;12.15;;;2.17;;
59824;SDS011;45703;50.898;6.054;2023-12-22T00:59:23;9.18;;;1.90;;
59824;SDS011;45703;50.898;6.054;2023-12-22T01:01:49;12.60;;;2.00;;
59824;SDS011;45703;50.898;6.054;2023-12-22T01:04:14;11.65;;;1.95;;
59824;SDS011;45703;50.898;6.054;2023-12-22T01:06:40;9.32;;;1.98;;
59824;SDS011;45703;50.898;6.054;2023-12-22T01:09:05;11.25;;;1.65;;
59824;SDS011;45703;50.898;6.054;2023-12-22T01:11:31;11.18;;;1.85;;
59824;SDS011;45703;50.898;6.054;2023-12-22T01:13:56;10.68;;;2.17;;
59824;SDS011;45703;50.898;6.054;2023-12-22T01:16:21;10.05;;;2.03;;
59824;SDS011;45703;50.898;6.054;2023-12-22T01:18:49;11.63;;;2.08;;
59824;SDS011;45703;50.898;6.054;2023-12-22T01:21:16;10.80;;;1.92;;
59824;SDS011;45703;50.898;6.054;2023-12-22T01:23:42;12.70;;;2.42;;
59824;SDS011;45703;50.898;6.054;2023-12-22T01:26:07;8.27;;;2.03;;
59824;SDS011;45703;50.898;6.054;2023-12-22T01:28:35;14.18;;;2.05;;
59824;SDS011;45703;50.898;6.054;2023-12-22T01:31:00;10.18;;;1.90;;
59824;SDS011;45703;50.898;6.054;2023-12-22T01:33:26;8.57;;;1.77;;
59824;SDS011;45703;50.898;6.054;2023-12-22T01:35:52;8.93;;;1.33;;
59824;SDS011;45703;50.898;6.054;2023-12-22T01:38:17;7.05;;;1.50;;
59824;SDS011;45703;50.898;6.054;2023-12-22T01:40:43;7.55;;;1.52;;
59824;SDS011;45703;50.898;6.054;2023-12-22T01:43:09;7.35;;;1.75;;
59824;SDS011;45703;50.898;6.054;2023-12-22T01:45:38;7.70;;;1.60;;
59824;SDS011;45703;50.898;6.054;2023-12-22T01:48:04;9.30;;;1.42;;
59824;SDS011;45703;50.898;6.054;2023-12-22T01:50:32;10.68;;;1.95;;
59824;SDS011;45703;50.898;6.054;2023-12-22T01:52:57;9.38;;;1.80;;
59824;SDS011;45703;50.898;6.054;2023-12-22T01:55:25;9.02;;;1.92;;
59824;SDS011;45703;50.898;6.054;2023-12-22T01:57:53;8.20;;;1.90;;
59824;SDS011;45703;50.898;6.054;2023-12-22T02:00:18;7.53;;;1.63;;
59824;SDS011;45703;50.898;6.054;2023-12-22T02:02:44;9.45;;;1.92;;
59824;SDS011;45703;50.898;6.054;2023-12-22T02:05:12;7.65;;;1.27;;
59824;SDS011;45703;50.898;6.054;2023-12-22T02:07:41;12.07;;;2.00;;
59824;SDS011;45703;50.898;6.054;2023-12-22T02:10:10;7.78;;;1.70;;
59824;SDS011;45703;50.898;6.054;2023-12-22T02:12:38;13.05;;;2.15;;
59824;SDS011;45703;50.898;6.054;2023-12-22T02:15:04;11.55;;;1.92;;
59824;SDS011;45703;50.898;6.054;2023-12-22T02:20:42;8.25;;;2.22;;
59824;SDS011;45703;50.898;6.054;2023-12-22T02:23:09;6.45;;;1.25;;
59824;SDS011;45703;50.898;6.054;2023-12-22T02:25:34;8.85;;;1.88;;
59824;SDS011;45703;50.898;6.054;2023-12-22T02:31:09;9.48;;;2.00;;
59824;SDS011;45703;50.898;6.054;2023-12-22T02:33:15;8.90;;;1.55;;
59824;SDS011;45703;50.898;6.054;2023-12-22T02:35:42;7.72;;;1.63;;
59824;SDS011;45703;50.898;6.054;2023-12-22T02:38:09;8.25;;;1.55;;
59824;SDS011;45703;50.898;6.054;2023-12-22T02:40:37;6.75;;;1.40;;
59824;SDS011;45703;50.898;6.054;2023-12-22T02:43:03;10.23;;;2.38;;
59824;SDS011;45703;50.898;6.054;2023-12-22T02:45:30;10.32;;;1.88;;
59824;SDS011;45703;50.898;6.054;2023-12-22T02:47:57;13.55;;;2.28;;
59824;SDS011;45703;50.898;6.054;2023-12-22T02:50:22;10.15;;;1.77;;
59824;SDS011;45703;50.898;6.054;2023-12-22T02:52:48;12.63;;;2.30;;
59824;SDS011;45703;50.898;6.054;2023-12-22T02:55:13;10.18;;;1.85;;
59824;SDS011;45703;50.898;6.054;2023-12-22T02:57:38;14.95;;;2.20;;
59824;SDS011;45703;50.898;6.054;2023-12-22T03:00:04;12.50;;;1.92;;
59824;SDS011;45703;50.898;6.054;2023-12-22T03:02:30;11.02;;;2.22;;
59824;SDS011;45703;50.898;6.054;2023-12-22T03:04:55;11.00;;;1.95;;
59824;SDS011;45703;50.898;6.054;2023-12-22T03:07:21;10.90;;;2.80;;
59824;SDS011;45703;50.898;6.054;2023-12-22T03:09:46;11.82;;;1.70;;
59824;SDS011;45703;50.898;6.054;2023-12-22T03:12:12;9.13;;;1.50;;
59824;SDS011;45703;50.898;6.054;2023-12-22T03:14:37;8.80;;;1.67;;
59824;SDS011;45703;50.898;6.054;2023-12-22T03:17:03;9.88;;;1.55;;
59824;SDS011;45703;50.898;6.054;2023-12-22T03:19:30;10.43;;;1.90;;
59824;SDS011;45703;50.898;6.054;2023-12-22T03:21:56;11.70;;;1.75;;
59824;SDS011;45703;50.898;6.054;2023-12-22T03:24:22;9.95;;;1.77;;
59824;SDS011;45703;50.898;6.054;2023-12-22T03:26:51;13.48;;;2.15;;
59824;SDS011;45703;50.898;6.054;2023-12-22T03:29:17;9.32;;;1.23;;
59824;SDS011;45703;50.898;6.054;2023-12-22T03:31:43;7.85;;;1.77;;
59824;SDS011;45703;50.898;6.054;2023-12-22T03:34:09;6.53;;;1.35;;
59824;SDS011;45703;50.898;6.054;2023-12-22T03:36:37;12.05;;;2.10;;
59824;SDS011;45703;50.898;6.054;2023-12-22T03:39:02;11.82;;;1.90;;
59824;SDS011;45703;50.898;6.054;2023-12-22T03:41:28;9.73;;;1.80;;
59824;SDS011;45703;50.898;6.054;2023-12-22T03:43:55;12.45;;;2.33;;
59824;SDS011;45703;50.898;6.054;2023-12-22T03:46:23;9.00;;;1.63;;
59824;SDS011;45703;50.898;6.054;2023-12-22T03:48:50;7.75;;;1.50;;
59824;SDS011;45703;50.898;6.054;2023-12-22T03:51:15;11.68;;;2.28;;
59824;SDS011;45703;50.898;6.054;2023-12-22T03:53:41;9.93;;;1.65;;
59824;SDS011;45703;50.898;6.054;2023-12-22T03:56:07;14.63;;;2.75;;
59824;SDS011;45703;50.898;6.054;2023-12-22T03:58:33;10.55;;;2.35;;
59824;SDS011;45703;50.898;6.054;2023-12-22T04:00:59;11.23;;;2.10;;
59824;SDS011;45703;50.898;6.054;2023-12-22T04:03:27;10.82;;;2.92;;
59824;SDS011;45703;50.898;6.054;2023-12-22T04:05:52;9.55;;;2.10;;
59824;SDS011;45703;50.898;6.054;2023-12-22T04:08:17;11.05;;;2.35;;
59824;SDS011;45703;50.898;6.054;2023-12-22T04:10:45;17.50;;;2.60;;
59824;SDS011;45703;50.898;6.054;2023-12-22T04:13:10;12.45;;;2.33;;
59824;SDS011;45703;50.898;6.054;2023-12-22T04:15:35;10.30;;;2.42;;
59824;SDS011;45703;50.898;6.054;2023-12-22T04:18:01;12.52;;;2.30;;
59824;SDS011;45703;50.898;6.054;2023-12-22T04:20:26;11.98;;;2.25;;
59824;SDS011;45703;50.898;6.054;2023-12-22T04:22:52;11.90;;;2.17;;
59824;SDS011;45703;50.898;6.054;2023-12-22T04:25:17;9.10;;;1.90;;
59824;SDS011;45703;50.898;6.054;2023-12-22T04:27:43;7.63;;;1.90;;
59824;SDS011;45703;50.898;6.054;2023-12-22T04:30:08;10.57;;;2.17;;
59824;SDS011;45703;50.898;6.054;2023-12-22T04:32:34;11.18;;;2.63;;
59824;SDS011;45703;50.898;6.054;2023-12-22T04:34:59;9.55;;;1.85;;
59824;SDS011;45703;50.898;6.054;2023-12-22T04:37:25;11.05;;;2.13;;
59824;SDS011;45703;50.898;6.054;2023-12-22T04:39:51;15.20;;;2.75;;
59824;SDS011;45703;50.898;6.054;2023-12-22T04:42:16;13.38;;;2.45;;
59824;SDS011;45703;50.898;6.054;2023-12-22T04:44:41;11.35;;;2.35;;
59824;SDS011;45703;50.898;6.054;2023-12-22T04:47:07;11.93;;;2.35;;
59824;SDS011;45703;50.898;6.054;2023-12-22T04:49:32;11.40;;;1.92;;
59824;SDS011;45703;50.898;6.054;2023-12-22T04:51:58;10.35;;;2.05;;
59824;SDS011;45703;50.898;6.054;2023-12-22T04:54:23;10.48;;;2.25;;
59824;SDS011;45703;50.898;6.054;2023-12-22T04:56:48;12.75;;;2.13;;
59824;SDS011;45703;50.898;6.054;2023-12-22T04:59:14;12.48;;;2.45;;
59824;SDS011;45703;50.898;6.054;2023-12-22T05:01:39;12.07;;;1.90;;
59824;SDS011;45703;50.898;6.054;2023-12-22T05:04:07;10.63;;;2.63;;
59824;SDS011;45703;50.898;6.054;2023-12-22T05:06:34;13.40;;;1.90;;
59824;SDS011;45703;50.898;6.054;2023-12-22T05:09:00;11.43;;;2.20;;
59824;SDS011;45703;50.898;6.054;2023-12-22T05:11:25;9.10;;;1.88;;
59824;SDS011;45703;50.898;6.054;2023-12-22T05:13:50;10.10;;;2.03;;
59824;SDS011;45703;50.898;6.054;2023-12-22T05:16:18;10.77;;;1.95;;
59824;SDS011;45703;50.898;6.054;2023-12-22T05:18:43;13.35;;;2.55;;
59824;SDS011;45703;50.898;6.054;2023-12-22T05:21:11;12.38;;;1.70;;
59824;SDS011;45703;50.898;6.054;2023-12-22T05:23:46;10.77;;;2.17;;
59824;SDS011;45703;50.898;6.054;2023-12-22T05:26:16;7.40;;;1.73;;
59824;SDS011;45703;50.898;6.054;2023-12-22T05:28:47;9.27;;;2.13;;
59824;SDS011;45703;50.898;6.054;2023-12-22T05:31:15;11.52;;;2.15;;
59824;SDS011;45703;50.898;6.054;2023-12-22T05:33:41;10.82;;;2.65;;
59824;SDS011;45703;50.898;6.054;2023-12-22T05:36:07;11.13;;;2.25;;
59824;SDS011;45703;50.898;6.054;2023-12-22T05:38:32;10.15;;;2.08;;
59824;SDS011;45703;50.898;6.054;2023-12-22T05:40:58;10.02;;;2.40;;
59824;SDS011;45703;50.898;6.054;2023-12-22T05:43:23;13.02;;;2.40;;
59824;SDS011;45703;50.898;6.054;2023-12-22T05:45:51;10.98;;;2.33;;
59824;SDS011;45703;50.898;6.054;2023-12-22T05:48:16;12.95;;;2.55;;
59824;SDS011;45703;50.898;6.054;2023-12-22T05:50:41;10.55;;;1.85;;
59824;SDS011;45703;50.898;6.054;2023-12-22T05:53:07;11.70;;;3.03;;
59824;SDS011;45703;50.898;6.054;2023-12-22T05:55:35;11.00;;;2.08;;
59824;SDS011;45703;50.898;6.054;2023-12-22T05:58:00;13.50;;;2.53;;
59824;SDS011;45703;50.898;6.054;2023-12-22T06:00:28;11.05;;;2.33;;
59824;SDS011;45703;50.898;6.054;2023-12-22T06:02:53;11.82;;;2.28;;
59824;SDS011;45703;50.898;6.054;2023-12-22T06:05:19;12.32;;;2.10;;
59824;SDS011;45703;50.898;6.054;2023-12-22T06:07:44;14.55;;;2.80;;
59824;SDS011;45703;50.898;6.054;2023-12-22T06:10:10;16.65;;;3.40;;
59824;SDS011;45703;50.898;6.054;2023-12-22T06:12:35;10.10;;;2.30;;
59824;SDS011;45703;50.898;6.054;2023-12-22T06:15:04;15.85;;;3.38;;
59824;SDS011;45703;50.898;6.054;2023-12-22T06:17:29;16.17;;;2.30;;
59824;SDS011;45703;50.898;6.054;2023-12-22T06:19:55;14.63;;;2.65;;
59824;SDS011;45703;50.898;6.054;2023-12-22T06:22:20;15.85;;;2.88;;
59824;SDS011;45703;50.898;6.054;2023-12-22T06:24:48;15.57;;;3.22;;
59824;SDS011;45703;50.898;6.054;2023-12-22T06:27:17;17.17;;;3.53;;
59824;SDS011;45703;50.898;6.054;2023-12-22T06:29:52;12.30;;;2.60;;
59824;SDS011;45703;50.898;6.054;2023-12-22T06:32:31;12.90;;;3.25;;
59824;SDS011;45703;50.898;6.054;2023-12-22T06:34:58;15.27;;;3.10;;
59824;SDS011;45703;50.898;6.054;2023-12-22T06:37:25;16.58;;;3.03;;
59824;SDS011;45703;50.898;6.054;2023-12-22T06:39:53;15.07;;;3.03;;
59824;SDS011;45703;50.898;6.054;2023-12-22T06:42:21;14.88;;;3.90;;
59824;SDS011;45703;50.898;6.054;2023-12-22T06:44:49;17.92;;;3.28;;
59824;SDS011;45703;50.898;6.054;2023-12-22T06:47:14;13.63;;;2.80;;
59824;SDS011;45703;50.898;6.054;2023-12-22T06:49:40;20.75;;;3.15;;
59824;SDS011;45703;50.898;6.054;2023-12-22T06:52:05;18.25;;;3.35;;
59824;SDS011;45703;50.898;6.054;2023-12-22T06:54:34;14.13;;;3.15;;
59824;SDS011;45703;50.898;6.054;2023-12-22T06:57:08;18.52;;;4.10;;
59824;SDS011;45703;50.898;6.054;2023-12-22T06:59:34;13.65;;;3.15;;
59824;SDS011;45703;50.898;6.054;2023-12-22T07:01:59;18.15;;;3.10;;
59824;SDS011;45703;50.898;6.054;2023-12-22T07:04:25;18.98;;;3.38;;
59824;SDS011;45703;50.898;6.054;2023-12-22T07:06:51;17.95;;;3.72;;
59824;SDS011;45703;50.898;6.054;2023-12-22T07:11:54;19.80;;;3.78;;
59824;SDS011;45703;50.898;6.054;2023-12-22T07:14:31;19.30;;;2.88;;
59824;SDS011;45703;50.898;6.054;2023-12-22T07:17:00;16.73;;;3.80;;
59824;SDS011;45703;50.898;6.054;2023-12-22T07:19:26;24.15;;;3.90;;
59824;SDS011;45703;50.898;6.054;2023-12-22T07:21:51;17.08;;;2.83;;
59824;SDS011;45703;50.898;6.054;2023-12-22T07:24:16;12.13;;;2.70;;
59824;SDS011;45703;50.898;6.054;2023-12-22T07:26:44;14.80;;;3.53;;
59824;SDS011;45703;50.898;6.054;2023-12-22T07:29:09;15.75;;;3.20;;
59824;SDS011;45703;50.898;6.054;2023-12-22T07:31:35;15.25;;;3.10;;
59824;SDS011;45703;50.898;6.054;2023-12-22T07:34:00;17.33;;;3.15;;
59824;SDS011;45703;50.898;6.054;2023-12-22T07:36:26;10.68;;;2.58;;
59824;SDS011;45703;50.898;6.054;2023-12-22T07:38:53;17.75;;;2.83;;
59824;SDS011;45703;50.898;6.054;2023-12-22T07:41:19;13.70;;;3.20;;
59824;SDS011;45703;50.898;6.054;2023-12-22T07:43:45;16.75;;;3.35;;
59824;SDS011;45703;50.898;6.054;2023-12-22T07:46:16;17.95;;;3.38;;
59824;SDS011;45703;50.898;6.054;2023-12-22T07:48:45;15.38;;;3.42;;
59824;SDS011;45703;50.898;6.054;2023-12-22T07:51:10;16.58;;;3.85;;
59824;SDS011;45703;50.898;6.054;2023-12-22T07:53:36;13.38;;;3.25;;
59824;SDS011;45703;50.898;6.054;2023-12-22T07:56:02;15.45;;;3.38;;
59824;SDS011;45703;50.898;6.054;2023-12-22T07:58:30;13.68;;;2.95;;
59824;SDS011;45703;50.898;6.054;2023-12-22T08:00:57;16.83;;;3.03;;
59824;SDS011;45703;50.898;6.054;2023-12-22T08:03:23;14.80;;;3.50;;
59824;SDS011;45703;50.898;6.054;2023-12-22T08:05:48;13.88;;;2.30;;
59824;SDS011;45703;50.898;6.054;2023-12-22T08:08:13;17.38;;;3.40;;
59824;SDS011;45703;50.898;6.054;2023-12-22T08:10:40;13.15;;;3.10;;
59824;SDS011;45703;50.898;6.054;2023-12-22T08:13:06;13.68;;;2.72;;
59824;SDS011;45703;50.898;6.054;2023-12-22T08:15:31;15.38;;;3.42;;
59824;SDS011;45703;50.898;6.054;2023-12-22T08:17:57;17.85;;;3.28;;
59824;SDS011;45703;50.898;6.054;2023-12-22T08:20:22;13.23;;;3.40;;
59824;SDS011;45703;50.898;6.054;2023-12-22T08:22:48;16.02;;;3.05;;
59824;SDS011;45703;50.898;6.054;2023-12-22T08:25:15;12.98;;;4.00;;
59824;SDS011;45703;50.898;6.054;2023-12-22T08:27:40;20.40;;;3.35;;
59824;SDS011;45703;50.898;6.054;2023-12-22T08:30:07;17.25;;;3.33;;
59824;SDS011;45703;50.898;6.054;2023-12-22T08:32:36;11.65;;;2.40;;
59824;SDS011;45703;50.898;6.054;2023-12-22T08:35:04;15.13;;;2.97;;
59824;SDS011;45703;50.898;6.054;2023-12-22T08:37:30;12.90;;;3.13;;
59824;SDS011;45703;50.898;6.054;2023-12-22T08:39:58;17.75;;;3.47;;
59824;SDS011;45703;50.898;6.054;2023-12-22T08:42:26;11.27;;;2.55;;
59824;SDS011;45703;50.898;6.054;2023-12-22T08:44:57;12.50;;;3.72;;
59824;SDS011;45703;50.898;6.054;2023-12-22T08:47:23;14.55;;;3.17;;
59824;SDS011;45703;50.898;6.054;2023-12-22T08:49:51;15.13;;;2.85;;
59824;SDS011;45703;50.898;6.054;2023-12-22T08:52:17;12.50;;;2.45;;
59824;SDS011;45703;50.898;6.054;2023-12-22T08:54:42;9.23;;;2.15;;
59824;SDS011;45703;50.898;6.054;2023-12-22T08:57:07;10.93;;;2.38;;
59824;SDS011;45703;50.898;6.054;2023-12-22T08:59:34;13.85;;;3.22;;
59824;SDS011;45703;50.898;6.054;2023-12-22T09:02:07;18.63;;;2.95;;
59824;SDS011;45703;50.898;6.054;2023-12-22T09:04:32;14.23;;;2.42;;
59824;SDS011;45703;50.898;6.054;2023-12-22T09:07:05;7.63;;;1.77;;
59824;SDS011;45703;50.898;6.054;2023-12-22T09:09:30;11.13;;;2.67;;
59824;SDS011;45703;50.898;6.054;2023-12-22T09:11:58;10.40;;;2.30;;
59824;SDS011;45703;50.898;6.054;2023-12-22T09:14:23;10.85;;;2.15;;
59824;SDS011;45703;50.898;6.054;2023-12-22T09:16:54;10.85;;;2.65;;
59824;SDS011;45703;50.898;6.054;2023-12-22T09:19:21;11.45;;;2.50;;
59824;SDS011;45703;50.898;6.054;2023-12-22T09:21:46;9.85;;;2.83;;
59824;SDS011;45703;50.898;6.054;2023-12-22T09:24:12;9.05;;;2.42;;
59824;SDS011;45703;50.898;6.054;2023-12-22T09:26:39;10.13;;;2.80;;
59824;SDS011;45703;50.898;6.054;2023-12-22T09:29:05;11.68;;;2.92;;
59824;SDS011;45703;50.898;6.054;2023-12-22T09:31:30;10.60;;;2.50;;
59824;SDS011;45703;50.898;6.054;2023-12-22T09:33:57;9.45;;;1.88;;
59824;SDS011;45703;50.898;6.054;2023-12-22T09:36:23;10.65;;;2.40;;
59824;SDS011;45703;50.898;6.054;2023-12-22T09:38:48;7.97;;;2.30;;
59824;SDS011;45703;50.898;6.054;2023-12-22T09:41:14;10.82;;;3.08;;
59824;SDS011;45703;50.898;6.054;2023-12-22T09:43:40;10.73;;;2.95;;
59824;SDS011;45703;50.898;6.054;2023-12-22T09:46:07;8.27;;;2.25;;
59824;SDS011;45703;50.898;6.054;2023-12-22T09:48:34;8.73;;;2.65;;
59824;SDS011;45703;50.898;6.054;2023-12-22T09:51:08;8.57;;;2.63;;
59824;SDS011;45703;50.898;6.054;2023-12-22T09:53:38;8.10;;;2.55;;
59824;SDS011;45703;50.898;6.054;2023-12-22T09:56:08;7.57;;;2.03;;
59824;SDS011;45703;50.898;6.054;2023-12-22T09:58:34;11.10;;;2.65;;
59824;SDS011;45703;50.898;6.054;2023-12-22T10:01:02;7.45;;;1.92;;
59824;SDS011;45703;50.898;6.054;2023-12-22T10:03:30;7.70;;;2.00;;
59824;SDS011;45703;50.898;6.054;2023-12-22T10:05:58;6.43;;;1.70;;
59824;SDS011;45703;50.898;6.054;2023-12-22T10:08:25;6.50;;;1.55;;
59824;SDS011;45703;50.898;6.054;2023-12-22T10:10:51;6.07;;;1.42;;
59824;SDS011;45703;50.898;6.054;2023-12-22T10:13:17;7.25;;;2.20;;
59824;SDS011;45703;50.898;6.054;2023-12-22T10:15:43;6.18;;;1.85;;
59824;SDS011;45703;50.898;6.054;2023-12-22T10:18:12;5.32;;;1.88;;
59824;SDS011;45703;50.898;6.054;2023-12-22T10:20:38;6.55;;;2.28;;
59824;SDS011;45703;50.898;6.054;2023-12-22T10:23:04;9.25;;;2.30;;
59824;SDS011;45703;50.898;6.054;2023-12-22T10:25:29;7.85;;;2.35;;
59824;SDS011;45703;50.898;6.054;2023-12-22T10:27:55;10.32;;;3.08;;
59824;SDS011;45703;50.898;6.054;2023-12-22T10:30:21;8.30;;;2.42;;
59824;SDS011;45703;50.898;6.054;2023-12-22T10:32:50;7.75;;;2.42;;
59824;SDS011;45703;50.898;6.054;2023-12-22T10:35:22;7.85;;;2.45;;
59824;SDS011;45703;50.898;6.054;2023-12-22T10:37:48;6.82;;;2.25;;
59824;SDS011;45703;50.898;6.054;2023-12-22T10:40:16;8.10;;;2.60;;
59824;SDS011;45703;50.898;6.054;2023-12-22T10:42:42;5.93;;;2.00;;
59824;SDS011;45703;50.898;6.054;2023-12-22T10:45:07;7.50;;;2.20;;
59824;SDS011;45703;50.898;6.054;2023-12-22T10:47:33;5.07;;;1.60;;
59824;SDS011;45703;50.898;6.054;2023-12-22T10:50:05;5.90;;;1.80;;
59824;SDS011;45703;50.898;6.054;2023-12-22T10:52:31;4.75;;;1.67;;
59824;SDS011;45703;50.898;6.054;2023-12-22T10:54:59;8.93;;;1.98;;
59824;SDS011;45703;50.898;6.054;2023-12-22T10:57:25;5.30;;;1.90;;
59824;SDS011;45703;50.898;6.054;2023-12-22T10:59:52;6.45;;;1.80;;
59824;SDS011;45703;50.898;6.054;2023-12-22T11:02:18;5.72;;;1.90;;
59824;SDS011;45703;50.898;6.054;2023-12-22T11:04:55;6.05;;;1.70;;
59824;SDS011;45703;50.898;6.054;2023-12-22T11:07:23;4.75;;;1.55;;
59824;SDS011;45703;50.898;6.054;2023-12-22T11:09:50;4.47;;;1.42;;
59824;SDS011;45703;50.898;6.054;2023-12-22T11:12:19;9.32;;;1.77;;
59824;SDS011;45703;50.898;6.054;2023-12-22T11:14:45;5.43;;;1.70;;
59824;SDS011;45703;50.898;6.054;2023-12-22T11:17:17;6.13;;;2.10;;
59824;SDS011;45703;50.898;6.054;2023-12-22T11:19:45;5.15;;;1.50;;
59824;SDS011;45703;50.898;6.054;2023-12-22T11:22:14;5.32;;;1.67;;
59824;SDS011;45703;50.898;6.054;2023-12-22T11:24:44;6.63;;;1.98;;
59824;SDS011;45703;50.898;6.054;2023-12-22T11:27:11;5.18;;;1.80;;
59824;SDS011;45703;50.898;6.054;2023-12-22T11:29:38;6.85;;;2.08;;
59824;SDS011;45703;50.898;6.054;2023-12-22T11:32:05;7.55;;;2.20;;
59824;SDS011;45703;50.898;6.054;2023-12-22T11:34:32;5.55;;;1.80;;
59824;SDS011;45703;50.898;6.054;2023-12-22T11:37:01;5.70;;;1.80;;
59824;SDS011;45703;50.898;6.054;2023-12-22T11:39:28;6.28;;;1.75;;
59824;SDS011;45703;50.898;6.054;2023-12-22T11:41:55;6.53;;;2.30;;
59824;SDS011;45703;50.898;6.054;2023-12-22T11:44:22;7.53;;;2.78;;
59824;SDS011;45703;50.898;6.054;2023-12-22T11:46:48;6.10;;;2.20;;
59824;SDS011;45703;50.898;6.054;2023-12-22T11:49:13;6.32;;;2.53;;
59824;SDS011;45703;50.898;6.054;2023-12-22T11:51:39;6.38;;;2.33;;
59824;SDS011;45703;50.898;6.054;2023-12-22T11:54:21;7.03;;;2.10;;
59824;SDS011;45703;50.898;6.054;2023-12-22T11:57:28;6.82;;;2.30;;
59824;SDS011;45703;50.898;6.054;2023-12-22T12:00:07;6.65;;;2.28;;
59824;SDS011;45703;50.898;6.054;2023-12-22T12:02:36;5.82;;;2.13;;
59824;SDS011;45703;50.898;6.054;2023-12-22T12:05:07;6.80;;;2.05;;
59824;SDS011;45703;50.898;6.054;2023-12-22T12:10:09;6.65;;;2.20;;
59824;SDS011;45703;50.898;6.054;2023-12-22T12:12:36;9.10;;;2.40;;
59824;SDS011;45703;50.898;6.054;2023-12-22T12:15:09;7.32;;;2.45;;
59824;SDS011;45703;50.898;6.054;2023-12-22T12:17:38;6.45;;;2.03;;
59824;SDS011;45703;50.898;6.054;2023-12-22T12:20:06;5.60;;;1.95;;
59824;SDS011;45703;50.898;6.054;2023-12-22T12:22:33;7.45;;;1.90;;
59824;SDS011;45703;50.898;6.054;2023-12-22T12:24:59;9.15;;;2.40;;
59824;SDS011;45703;50.898;6.054;2023-12-22T12:27:26;5.93;;;1.60;;
59824;SDS011;45703;50.898;6.054;2023-12-22T12:29:59;6.38;;;2.25;;
59824;SDS011;45703;50.898;6.054;2023-12-22T12:32:31;7.28;;;2.08;;
59824;SDS011;45703;50.898;6.054;2023-12-22T12:34:58;8.73;;;2.53;;
59824;SDS011;45703;50.898;6.054;2023-12-22T12:37:29;6.75;;;1.70;;
59824;SDS011;45703;50.898;6.054;2023-12-22T12:42:26;8.90;;;2.17;;
59824;SDS011;45703;50.898;6.054;2023-12-22T12:44:59;5.97;;;1.90;;
59824;SDS011;45703;50.898;6.054;2023-12-22T12:47:25;9.88;;;2.83;;
59824;SDS011;45703;50.898;6.054;2023-12-22T12:49:57;9.48;;;2.33;;
59824;SDS011;45703;50.898;6.054;2023-12-22T12:52:24;8.60;;;2.10;;
59824;SDS011;45703;50.898;6.054;2023-12-22T12:54:50;6.18;;;1.73;;
59824;SDS011;45703;50.898;6.054;2023-12-22T12:57:16;8.65;;;2.05;;
59824;SDS011;45703;50.898;6.054;2023-12-22T12:59:46;5.90;;;1.90;;
59824;SDS011;45703;50.898;6.054;2023-12-22T13:02:18;8.68;;;2.22;;
59824;SDS011;45703;50.898;6.054;2023-12-22T13:04:45;4.53;;;1.48;;
59824;SDS011;45703;50.898;6.054;2023-12-22T13:07:13;7.07;;;1.67;;
59824;SDS011;45703;50.898;6.054;2023-12-22T13:09:50;5.68;;;1.77;;
59824;SDS011;45703;50.898;6.054;2023-12-22T13:12:15;5.95;;;1.70;;
59824;SDS011;45703;50.898;6.054;2023-12-22T13:14:41;8.40;;;1.70;;
59824;SDS011;45703;50.898;6.054;2023-12-22T13:17:08;5.85;;;1.55;;
59824;SDS011;45703;50.898;6.054;2023-12-22T13:19:36;5.82;;;1.45;;
59824;SDS011;45703;50.898;6.054;2023-12-22T13:22:04;5.20;;;1.30;;
59824;SDS011;45703;50.898;6.054;2023-12-22T13:24:35;7.15;;;1.63;;
59824;SDS011;45703;50.898;6.054;2023-12-22T13:27:03;6.68;;;1.60;;
59824;SDS011;45703;50.898;6.054;2023-12-22T13:29:55;4.25;;;1.25;;
59824;SDS011;45703;50.898;6.054;2023-12-22T13:32:19;7.00;;;1.90;;
59824;SDS011;45703;50.898;6.054;2023-12-22T13:34:54;5.68;;;1.65;;
59824;SDS011;45703;50.898;6.054;2023-12-22T13:37:22;7.53;;;1.77;;
59824;SDS011;45703;50.898;6.054;2023-12-22T13:39:51;6.43;;;1.73;;
59824;SDS011;45703;50.898;6.054;2023-12-22T13:42:17;7.05;;;2.20;;
59824;SDS011;45703;50.898;6.054;2023-12-22T13:44:45;5.65;;;1.35;;
59824;SDS011;45703;50.898;6.054;2023-12-22T13:47:14;5.00;;;1.52;;
59824;SDS011;45703;50.898;6.054;2023-12-22T13:49:41;7.97;;;1.67;;
59824;SDS011;45703;50.898;6.054;2023-12-22T13:52:08;6.45;;;1.40;;
59824;SDS011;45703;50.898;6.054;2023-12-22T13:54:49;5.07;;;1.35;;
59824;SDS011;45703;50.898;6.054;2023-12-22T13:57:20;7.32;;;1.73;;
59824;SDS011;45703;50.898;6.054;2023-12-22T13:59:48;6.43;;;1.52;;
59824;SDS011;45703;50.898;6.054;2023-12-22T14:02:13;5.40;;;1.42;;
59824;SDS011;45703;50.898;6.054;2023-12-22T14:04:39;7.40;;;1.92;;
59824;SDS011;45703;50.898;6.054;2023-12-22T14:07:08;5.22;;;1.40;;
59824;SDS011;45703;50.898;6.054;2023-12-22T14:09:36;7.13;;;1.85;;
59824;SDS011;45703;50.898;6.054;2023-12-22T14:12:03;6.93;;;1.63;;
59824;SDS011;45703;50.898;6.054;2023-12-22T14:14:31;5.82;;;1.50;;
59824;SDS011;45703;50.898;6.054;2023-12-22T14:16:57;6.07;;;1.58;;
59824;SDS011;45703;50.898;6.054;2023-12-22T14:19:22;6.38;;;1.33;;
59824;SDS011;45703;50.898;6.054;2023-12-22T14:21:50;6.68;;;1.88;;
59824;SDS011;45703;50.898;6.054;2023-12-22T14:24:15;6.13;;;1.63;;
59824;SDS011;45703;50.898;6.054;2023-12-22T14:26:53;4.88;;;1.30;;
59824;SDS011;45703;50.898;6.054;2023-12-22T14:29:19;5.72;;;1.60;;
59824;SDS011;45703;50.898;6.054;2023-12-22T14:31:47;5.43;;;1.30;;
59824;SDS011;45703;50.898;6.054;2023-12-22T14:34:13;4.45;;;1.33;;
59824;SDS011;45703;50.898;6.054;2023-12-22T14:36:39;5.72;;;1.48;;
59824;SDS011;45703;50.898;6.054;2023-12-22T14:39:04;6.18;;;1.50;;
59824;SDS011;45703;50.898;6.054;2023-12-22T14:41:30;8.80;;;1.88;;
59824;SDS011;45703;50.898;6.054;2023-12-22T14:43:56;6.07;;;1.80;;
59824;SDS011;45703;50.898;6.054;2023-12-22T14:46:21;6.07;;;1.80;;
59824;SDS011;45703;50.898;6.054;2023-12-22T14:48:46;5.97;;;1.90;;
59824;SDS011;45703;50.898;6.054;2023-12-22T14:51:12;7.07;;;1.83;;
59824;SDS011;45703;50.898;6.054;2023-12-22T14:53:37;6.63;;;1.77;;